createdAt,value
2023-02-01T00:00:23.663Z,90.12
2023-02-01T00:02:50.245Z,90.56
2023-02-01T00:05:16.751Z,90.73
2023-02-01T00:07:43.192Z,90.61
2023-02-01T00:10:10.006Z,91.63
2023-02-01T00:12:36.526Z,91.37
2023-02-01T00:15:03.167Z,91.62
2023-02-01T00:17:29.588Z,92.55
2023-02-01T00:19:55.998Z,92.58
2023-02-01T00:22:22.507Z,92.17
2023-02-01T00:24:48.976Z,91.91
2023-02-01T00:27:18.609Z,92.15
2023-02-01T00:29:45.942Z,91.46
2023-02-01T00:32:12.913Z,91.70
2023-02-01T00:34:39.443Z,91.32
2023-02-01T00:37:05.865Z,92.34
2023-02-01T00:39:32.367Z,91.89
2023-02-01T00:42:00.959Z,92.02
2023-02-01T00:44:27.986Z,91.59
2023-02-01T00:46:54.715Z,91.32
2023-02-01T00:49:21.346Z,91.13
2023-02-01T00:51:48.413Z,91.70
2023-02-01T00:54:14.917Z,91.20
2023-02-01T00:56:41.395Z,91.28
2023-02-01T00:59:11.628Z,90.83
2023-02-01T01:01:38.198Z,91.02
2023-02-01T01:04:04.853Z,90.58
2023-02-01T01:06:33.725Z,90.80
2023-02-01T01:09:02.254Z,90.13
2023-02-01T01:11:30.997Z,91.17
2023-02-01T01:13:59.429Z,90.32
2023-02-01T01:16:28.669Z,90.13
2023-02-01T01:18:56.446Z,90.08
2023-02-01T01:21:22.983Z,89.84
2023-02-01T01:23:50.094Z,89.59
2023-02-01T01:26:19.908Z,89.11
2023-02-01T01:28:46.965Z,89.49
2023-02-01T01:31:15.218Z,89.42
2023-02-01T01:33:41.714Z,89.29
2023-02-01T01:36:12.062Z,89.42
2023-02-01T01:38:39.558Z,89.36
2023-02-01T01:41:06.271Z,89.35
2023-02-01T01:43:52.407Z,89.56
2023-02-01T01:46:22.245Z,89.04
2023-02-01T01:48:54.699Z,89.61
2023-02-01T01:51:24.172Z,88.95
2023-02-01T01:54:06.316Z,89.24
2023-02-01T01:56:35.086Z,89.34
2023-02-01T01:59:03.198Z,89.40
2023-02-01T02:01:30.007Z,90.26
2023-02-01T02:03:57.495Z,89.38
2023-02-01T02:06:56.451Z,89.63
2023-02-01T02:09:22.980Z,90.40
2023-02-01T02:11:49.587Z,90.88
2023-02-01T02:14:19.067Z,91.59
2023-02-01T02:16:57.239Z,91.88
2023-02-01T02:19:41.993Z,91.34
2023-02-01T02:22:40.016Z,91.38
2023-02-01T02:25:38.145Z,91.35
2023-02-01T02:28:38.429Z,91.48
2023-02-01T02:31:23.885Z,90.44
2023-02-01T02:34:03.873Z,91.33
2023-02-01T02:36:40.697Z,90.86
2023-02-01T02:39:38.143Z,90.59
2023-02-01T02:42:35.583Z,91.29
2023-02-01T02:45:41.462Z,91.15
2023-02-01T02:48:17.135Z,90.50
2023-02-01T02:51:10.368Z,91.05
2023-02-01T02:54:05.100Z,90.80
2023-02-01T02:56:51.017Z,90.79
2023-02-01T02:59:41.173Z,90.75
2023-02-01T03:02:27.447Z,90.56
2023-02-01T03:04:58.715Z,90.46
2023-02-01T03:07:45.174Z,89.41
2023-02-01T03:10:38.851Z,89.73
2023-02-01T03:13:13.759Z,89.56
2023-02-01T03:15:49.417Z,88.80
2023-02-01T03:18:32.010Z,88.96
2023-02-01T03:21:01.373Z,89.22
2023-02-01T03:23:34.732Z,88.43
2023-02-01T03:26:02.862Z,87.93
2023-02-01T03:28:33.765Z,87.93
2023-02-01T03:31:01.873Z,87.69
2023-02-01T03:33:31.119Z,87.15
2023-02-01T03:36:13.245Z,87.31
2023-02-01T03:38:59.702Z,87.34
2023-02-01T03:41:35.883Z,87.24
2023-02-01T03:44:25.953Z,86.96
2023-02-01T03:47:00.534Z,87.16
2023-02-01T03:49:38.815Z,86.75
2023-02-01T03:52:09.236Z,86.62
2023-02-01T03:54:37.595Z,86.60
2023-02-01T03:57:10.794Z,86.67
2023-02-01T03:59:42.271Z,86.38
2023-02-01T04:02:09.559Z,86.33
2023-02-01T04:04:36.681Z,85.77
2023-02-01T04:07:04.746Z,86.07
2023-02-01T04:09:31.314Z,85.52
2023-02-01T04:11:57.785Z,85.59
2023-02-01T04:14:24.276Z,85.38
2023-02-01T04:16:50.974Z,85.33
2023-02-01T04:19:17.449Z,85.34
2023-02-01T04:21:43.970Z,84.92
2023-02-01T04:24:11.536Z,85.22
2023-02-01T04:26:38.562Z,85.42
2023-02-01T04:29:05.191Z,85.00
2023-02-01T04:31:31.761Z,85.13
2023-02-01T04:33:58.555Z,85.32
2023-02-01T04:36:25.464Z,84.82
2023-02-01T04:38:52.290Z,85.05
2023-02-01T04:41:19.762Z,85.16
2023-02-01T04:43:51.093Z,85.01
2023-02-01T04:46:17.708Z,85.40
2023-02-01T04:48:44.222Z,85.97
2023-02-01T04:51:11.360Z,86.00
2023-02-01T04:53:37.799Z,86.21
2023-02-01T04:56:04.609Z,86.07
2023-02-01T04:58:31.145Z,85.79
2023-02-01T05:00:57.650Z,85.93
2023-02-01T05:03:24.163Z,86.46
2023-02-01T05:05:50.944Z,86.62
2023-02-01T05:08:17.405Z,87.35
2023-02-01T05:10:46.032Z,88.15
2023-02-01T05:13:31.228Z,88.56
2023-02-01T05:15:57.758Z,88.49
2023-02-01T05:18:24.447Z,88.74
2023-02-01T05:20:50.860Z,88.60
2023-02-01T05:23:17.331Z,88.07
2023-02-01T05:25:43.851Z,87.99
2023-02-01T05:28:10.382Z,88.22
2023-02-01T05:30:37.196Z,88.15
2023-02-01T05:33:04.473Z,87.56
2023-02-01T05:35:31.156Z,87.44
2023-02-01T05:37:57.649Z,87.82
2023-02-01T05:40:24.570Z,88.12
2023-02-01T05:42:51.181Z,87.70
2023-02-01T05:45:17.821Z,87.13
2023-02-01T05:47:44.257Z,87.88
2023-02-01T05:50:10.978Z,99.26
2023-02-01T05:52:37.430Z,99.50
2023-02-01T05:55:04.719Z,97.35
2023-02-01T05:57:31.408Z,93.51
2023-02-01T05:59:59.453Z,87.99
2023-02-01T06:02:26.971Z,82.21
2023-02-01T06:04:53.412Z,82.00
2023-02-01T06:07:19.976Z,81.19
2023-02-01T06:09:46.404Z,74.61
2023-02-01T06:12:13.260Z,75.57
2023-02-01T06:14:39.692Z,76.64
2023-02-01T06:17:07.226Z,77.43
2023-02-01T06:19:33.641Z,77.89
2023-02-01T06:22:00.114Z,79.17
2023-02-01T06:24:26.695Z,79.80
2023-02-01T06:26:53.223Z,80.29
2023-02-01T06:29:19.651Z,80.77
2023-02-01T06:31:46.119Z,81.13
2023-02-01T06:34:12.641Z,81.96
2023-02-01T06:36:39.438Z,82.04
2023-02-01T06:39:05.876Z,82.15
2023-02-01T06:41:32.325Z,81.82
2023-02-01T06:43:58.806Z,82.17
2023-02-01T06:46:25.284Z,81.87
2023-02-01T06:48:52.018Z,82.67
2023-02-01T06:51:24.042Z,82.42
2023-02-01T06:53:50.795Z,82.84
2023-02-01T06:56:17.347Z,83.06
2023-02-01T06:58:43.839Z,82.76
2023-02-01T07:01:11.626Z,82.75
2023-02-01T07:03:38.884Z,82.77
2023-02-01T07:06:06.029Z,82.74
2023-02-01T07:08:34.535Z,83.24
2023-02-01T07:11:10.170Z,83.33
2023-02-01T07:13:37.517Z,84.11
2023-02-01T07:16:06.806Z,84.11
2023-02-01T07:18:33.659Z,83.84
2023-02-01T07:21:00.439Z,83.70
2023-02-01T07:23:27.843Z,83.09
2023-02-01T07:25:59.301Z,82.47
2023-02-01T07:28:26.309Z,81.89
2023-02-01T07:30:53.187Z,81.82
2023-02-01T07:33:22.211Z,81.76
2023-02-01T07:35:49.995Z,82.61
2023-02-01T07:38:17.714Z,82.61
2023-02-01T07:40:44.458Z,82.79
2023-02-01T07:43:10.966Z,83.12
2023-02-01T07:45:37.974Z,83.41
2023-02-01T07:48:04.907Z,83.37
2023-02-01T07:50:31.780Z,84.06
2023-02-01T07:53:02.015Z,84.02
2023-02-01T07:55:28.993Z,84.19
2023-02-01T07:57:58.382Z,84.78
2023-02-01T08:00:43.633Z,84.65
2023-02-01T08:03:10.088Z,84.63
2023-02-01T08:05:37.821Z,84.78
2023-02-01T08:08:05.231Z,84.66
2023-02-01T08:10:32.006Z,84.44
2023-02-01T08:13:00.748Z,84.23
2023-02-01T08:15:28.489Z,84.41
2023-02-01T08:17:55.620Z,83.93
2023-02-01T08:20:27.033Z,83.96
2023-02-01T08:22:54.768Z,84.08
2023-02-01T08:25:21.932Z,83.89
2023-02-01T08:27:48.627Z,83.68
2023-02-01T08:30:15.442Z,83.33
2023-02-01T08:32:41.974Z,82.64
2023-02-01T08:35:09.944Z,83.05
2023-02-01T08:37:36.430Z,81.92
2023-02-01T08:40:04.463Z,79.90
2023-02-01T08:42:49.740Z,77.50
2023-02-01T08:45:16.316Z,74.15
2023-02-01T08:47:43.019Z,71.61
2023-02-01T08:50:10.363Z,71.67
2023-02-01T08:52:38.297Z,70.92
2023-02-01T08:55:06.605Z,69.76
2023-02-01T08:57:34.331Z,69.02
2023-02-01T09:00:01.197Z,67.64
2023-02-01T09:02:28.112Z,67.63
2023-02-01T09:04:55.712Z,66.16
2023-02-01T09:07:22.174Z,65.57
2023-02-01T09:09:48.654Z,66.68
2023-02-01T09:12:15.348Z,66.70
2023-02-01T09:14:41.828Z,66.89
2023-02-01T09:17:08.371Z,67.63
2023-02-01T09:19:34.834Z,67.29
2023-02-01T09:22:01.313Z,67.85
2023-02-01T09:24:29.005Z,68.80
2023-02-01T09:26:55.561Z,68.37
2023-02-01T09:29:22.046Z,69.27
2023-02-01T09:32:01.540Z,70.22
2023-02-01T09:34:30.561Z,69.56
2023-02-01T09:36:57.225Z,70.11
2023-02-01T09:39:23.736Z,70.33
2023-02-01T09:42:15.734Z,71.08
2023-02-01T09:45:11.052Z,71.00
2023-02-01T09:47:55.872Z,71.38
2023-02-01T09:50:38.234Z,70.93
2023-02-01T09:53:13.932Z,71.34
2023-02-01T09:55:49.371Z,71.11
2023-02-01T09:58:24.054Z,71.53
2023-02-01T10:00:58.799Z,71.58
2023-02-01T10:03:30.282Z,71.47
2023-02-01T10:06:09.176Z,71.86
2023-02-01T10:09:01.974Z,71.43
2023-02-01T10:11:51.630Z,71.93
2023-02-01T10:14:57.959Z,72.44
2023-02-01T10:17:27.387Z,71.17
2023-02-01T10:20:03.274Z,71.96
2023-02-01T10:23:10.365Z,71.66
2023-02-01T10:25:37.702Z,71.57
2023-02-01T10:28:05.362Z,71.75
2023-02-01T10:30:43.926Z,71.55
2023-02-01T10:33:24.830Z,71.30
2023-02-01T10:35:57.398Z,71.29
2023-02-01T10:38:28.549Z,70.92
2023-02-01T10:41:02.349Z,71.50
2023-02-01T10:43:29.454Z,72.06
2023-02-01T10:45:56.043Z,71.41
2023-02-01T10:48:23.301Z,71.31
2023-02-01T10:51:01.422Z,72.38
2023-02-01T10:54:14.568Z,71.73
2023-02-01T10:56:46.352Z,71.31
2023-02-01T10:59:24.908Z,71.68
2023-02-01T11:02:00.858Z,71.49
2023-02-01T11:04:29.969Z,71.49
2023-02-01T11:07:09.172Z,71.84
2023-02-01T11:09:41.008Z,71.42
2023-02-01T11:12:29.151Z,71.49
2023-02-01T11:15:02.947Z,71.82
2023-02-01T11:17:35.322Z,71.59
2023-02-01T11:20:06.841Z,71.45
2023-02-01T11:22:33.335Z,71.07
2023-02-01T11:25:03.061Z,70.63
2023-02-01T11:27:29.740Z,70.52
2023-02-01T11:30:01.240Z,70.18
2023-02-01T11:32:29.221Z,70.53
2023-02-01T11:35:02.909Z,70.04
2023-02-01T11:37:38.397Z,70.19
2023-02-01T11:40:23.399Z,70.12
2023-02-01T11:43:29.669Z,70.32
2023-02-01T11:46:01.288Z,70.07
2023-02-01T11:48:31.089Z,70.65
2023-02-01T11:51:32.430Z,70.21
2023-02-01T11:54:51.669Z,70.41
2023-02-01T11:57:40.109Z,69.98
2023-02-01T12:00:28.346Z,69.12
2023-02-01T12:02:57.911Z,69.42
2023-02-01T12:05:55.052Z,70.56
2023-02-01T12:08:33.981Z,69.79
2023-02-01T12:11:32.482Z,69.52
2023-02-01T12:14:24.723Z,69.31
2023-02-01T12:17:12.625Z,69.34
2023-02-01T12:20:04.311Z,69.84
2023-02-01T12:22:50.432Z,69.30
2023-02-01T12:25:58.677Z,68.74
2023-02-01T12:28:55.047Z,69.07
2023-02-01T12:31:37.669Z,69.59
2023-02-01T12:34:27.435Z,68.89
2023-02-01T12:37:08.876Z,69.23
2023-02-01T12:39:53.686Z,68.56
2023-02-01T12:42:35.355Z,69.91
2023-02-01T12:45:17.106Z,68.80
2023-02-01T12:47:50.140Z,68.40
2023-02-01T12:54:42.542Z,68.31
2023-02-01T12:57:38.804Z,67.99
2023-02-01T13:00:23.483Z,68.10
2023-02-01T13:03:06.394Z,67.98
2023-02-01T13:05:47.445Z,68.01
2023-02-01T13:08:20.971Z,68.48
2023-02-01T13:11:10.786Z,67.71
2023-02-01T13:13:45.044Z,68.53
2023-02-01T13:16:55.415Z,67.88
2023-02-01T13:19:31.972Z,67.88
2023-02-01T13:22:08.488Z,67.89
2023-02-01T13:24:41.441Z,68.34
2023-02-01T13:27:18.111Z,67.68
2023-02-01T13:29:53.091Z,67.93
2023-02-01T13:32:54.899Z,67.95
2023-02-01T13:35:37.251Z,68.24
2023-02-01T13:38:45.077Z,68.10
2023-02-01T13:41:29.371Z,67.71
2023-02-01T13:44:12.329Z,67.95
2023-02-01T13:46:44.609Z,68.51
2023-02-01T13:49:23.750Z,67.97
2023-02-01T13:51:54.072Z,67.94
2023-02-01T13:54:37.437Z,68.14
2023-02-01T13:57:06.388Z,68.02
2023-02-01T13:59:42.046Z,67.24
2023-02-01T14:02:39.855Z,68.05
2023-02-01T14:05:12.126Z,67.29
2023-02-01T14:08:07.987Z,67.34
2023-02-01T14:10:48.324Z,66.97
2023-02-01T14:13:24.422Z,67.16
2023-02-01T14:16:13.987Z,65.76
2023-02-01T14:18:46.366Z,66.22
2023-02-01T14:21:47.676Z,66.17
2023-02-01T14:24:25.940Z,66.06
2023-02-01T14:26:57.980Z,65.50
2023-02-01T14:29:33.939Z,65.57
2023-02-01T14:32:20.903Z,65.66
2023-02-01T14:34:47.579Z,65.20
2023-02-01T14:37:19.748Z,64.87
2023-02-01T14:39:46.108Z,64.78
2023-02-01T14:42:24.496Z,65.14
2023-02-01T14:44:58.993Z,65.44
2023-02-01T14:47:29.212Z,65.37
2023-02-01T14:50:16.722Z,64.98
2023-02-01T14:52:48.239Z,65.25
2023-02-01T14:55:34.909Z,65.22
2023-02-01T14:58:05.777Z,66.03
2023-02-01T15:00:32.789Z,66.35
2023-02-01T15:03:24.701Z,66.12
2023-02-01T15:05:59.312Z,66.06
2023-02-01T15:08:32.697Z,66.21
2023-02-01T15:11:02.837Z,65.84
2023-02-01T15:13:30.342Z,65.27
2023-02-01T15:16:15.316Z,65.10
2023-02-01T15:18:42.568Z,65.54
2023-02-01T15:21:27.902Z,65.19
2023-02-01T15:24:15.558Z,65.31
2023-02-01T15:26:42.138Z,65.25
2023-02-01T15:29:14.091Z,65.72
2023-02-01T15:31:44.358Z,65.64
2023-02-01T15:34:11.895Z,66.08
2023-02-01T15:36:38.793Z,65.82
2023-02-01T15:39:24.093Z,65.75
2023-02-01T15:41:55.472Z,66.67
2023-02-01T15:44:43.832Z,66.44
2023-02-01T15:47:25.290Z,67.30
2023-02-01T15:49:55.386Z,67.13
2023-02-01T15:52:38.575Z,67.22
2023-02-01T15:55:10.026Z,67.30
2023-02-01T15:57:41.187Z,66.78
2023-02-01T16:00:22.401Z,67.32
2023-02-01T16:02:54.186Z,67.68
2023-02-01T16:05:41.765Z,67.58
2023-02-01T16:08:23.245Z,67.73
2023-02-01T16:10:53.649Z,67.71
2023-02-01T16:13:21.434Z,67.64
2023-02-01T16:15:48.640Z,68.02
2023-02-01T16:18:17.808Z,69.04
2023-02-01T16:20:46.336Z,68.19
2023-02-01T16:23:12.880Z,69.12
2023-02-01T16:25:41.101Z,68.75
2023-02-01T16:28:08.576Z,68.73
2023-02-01T16:30:35.381Z,69.06
2023-02-01T16:33:08.531Z,68.68
2023-02-01T16:35:37.540Z,69.37
2023-02-01T16:38:09.665Z,69.99
2023-02-01T16:40:36.212Z,69.95
2023-02-01T16:43:03.191Z,70.15
2023-02-01T16:45:31.491Z,70.07
2023-02-01T16:47:58.309Z,69.34
2023-02-01T16:50:26.615Z,69.56
2023-02-01T16:52:54.279Z,69.92
2023-02-01T16:55:22.915Z,69.07
2023-02-01T16:57:50.085Z,69.52
2023-02-01T17:00:25.591Z,69.47
2023-02-01T17:02:54.001Z,68.52
2023-02-01T17:05:20.651Z,68.93
2023-02-01T17:07:47.255Z,68.67
2023-02-01T17:10:34.711Z,68.53
2023-02-01T17:13:02.359Z,68.82
2023-02-01T17:15:34.838Z,68.70
2023-02-01T17:18:02.745Z,68.88
2023-02-01T17:20:32.918Z,68.33
2023-02-01T17:22:59.710Z,68.65
2023-02-01T17:25:28.235Z,68.33
2023-02-01T17:27:54.683Z,68.62
2023-02-01T17:30:21.463Z,68.95
2023-02-01T17:32:48.188Z,68.37
2023-02-01T17:35:27.357Z,68.09
2023-02-01T17:37:55.078Z,68.83
2023-02-01T17:40:21.569Z,68.76
2023-02-01T17:42:48.900Z,68.12
2023-02-01T17:45:36.384Z,68.75
2023-02-01T17:48:04.871Z,68.53
2023-02-01T17:50:34.776Z,68.56
2023-02-01T17:53:03.083Z,68.61
2023-02-01T17:55:29.699Z,68.36
2023-02-01T17:57:56.391Z,68.80
2023-02-01T18:00:22.900Z,69.19
2023-02-01T18:02:49.501Z,69.25
2023-02-01T18:05:22.929Z,69.23
2023-02-01T18:07:49.600Z,69.61
2023-02-01T18:10:16.484Z,69.82
2023-02-01T18:12:43.093Z,69.53
2023-02-01T18:15:22.562Z,69.58
2023-02-01T18:17:49.643Z,69.87
2023-02-01T18:20:18.299Z,70.56
2023-02-01T18:22:48.604Z,70.36
2023-02-01T18:25:24.521Z,70.35
2023-02-01T18:27:53.047Z,70.37
2023-02-01T18:30:22.075Z,70.40
2023-02-01T18:32:49.104Z,70.82
2023-02-01T18:35:27.479Z,70.77
2023-02-01T18:37:56.247Z,71.57
2023-02-01T18:40:26.634Z,70.85
2023-02-01T18:42:53.143Z,71.35
2023-02-01T18:45:25.192Z,71.58
2023-02-01T18:47:52.067Z,71.54
2023-02-01T18:50:19.375Z,71.31
2023-02-01T18:52:46.543Z,71.33
2023-02-01T18:55:13.742Z,71.33
2023-02-01T18:57:41.492Z,71.47
2023-02-01T19:00:10.324Z,71.62
2023-02-01T19:02:39.032Z,71.65
2023-02-01T19:05:08.510Z,71.71
2023-02-01T19:07:38.941Z,71.55
2023-02-01T19:10:07.402Z,71.73
2023-02-01T19:12:34.077Z,71.32
2023-02-01T19:15:00.710Z,71.58
2023-02-01T19:17:28.935Z,71.45
2023-02-01T19:19:58.743Z,71.42
2023-02-01T19:22:26.655Z,70.67
2023-02-01T19:24:54.640Z,70.92
2023-02-01T19:27:21.502Z,71.29
2023-02-01T19:29:48.131Z,70.62
2023-02-01T19:32:14.997Z,71.55
2023-02-01T19:34:41.552Z,71.32
2023-02-01T19:37:09.130Z,71.28
2023-02-01T19:39:37.747Z,70.98
2023-02-01T19:42:05.476Z,71.26
2023-02-01T19:44:33.704Z,70.76
2023-02-01T19:47:00.749Z,71.23
2023-02-01T19:49:27.352Z,71.32
2023-02-01T19:51:53.796Z,71.13
2023-02-01T19:54:20.777Z,71.09
2023-02-01T19:56:50.660Z,71.52
2023-02-01T19:59:18.613Z,71.91
2023-02-01T20:01:46.424Z,71.42
2023-02-01T20:04:14.627Z,71.48
2023-02-01T20:06:48.685Z,71.26
2023-02-01T20:09:20.167Z,71.02
2023-02-01T20:11:47.317Z,71.52
2023-02-01T20:14:14.697Z,71.67
2023-02-01T20:16:42.428Z,71.55
2023-02-01T20:19:10.746Z,70.88
2023-02-01T20:21:38.697Z,71.07
2023-02-01T20:24:05.906Z,71.36
2023-02-01T20:26:34.473Z,71.67
2023-02-01T20:29:02.515Z,71.42
2023-02-01T20:31:29.946Z,71.36
2023-02-01T20:33:58.159Z,70.92
2023-02-01T20:36:26.566Z,71.64
2023-02-01T20:38:54.804Z,71.62
2023-02-01T20:41:22.277Z,71.81
2023-02-01T20:43:49.067Z,72.27
2023-02-01T20:46:16.877Z,72.24
2023-02-01T20:48:44.867Z,72.10
2023-02-01T20:51:12.853Z,71.77
2023-02-01T20:53:40.185Z,72.08
2023-02-01T20:56:07.710Z,71.88
2023-02-01T20:58:34.405Z,72.27
2023-02-01T21:01:00.852Z,71.45
2023-02-01T21:03:27.629Z,71.92
2023-02-01T21:05:57.393Z,71.97
2023-02-01T21:08:25.331Z,71.65
2023-02-01T21:11:01.133Z,72.11
2023-02-01T21:13:31.806Z,71.81
2023-02-01T21:15:58.606Z,71.97
2023-02-01T21:18:25.118Z,72.67
2023-02-01T21:20:52.565Z,72.50
2023-02-01T21:23:19.469Z,73.43
2023-02-01T21:25:46.589Z,72.77
2023-02-01T21:28:13.592Z,73.03
2023-02-01T21:30:40.516Z,73.36
2023-02-01T21:33:07.818Z,73.10
2023-02-01T21:35:34.283Z,73.11
2023-02-01T21:38:00.796Z,73.63
2023-02-01T21:40:27.304Z,73.74
2023-02-01T21:42:54.451Z,73.86
2023-02-01T21:45:20.993Z,73.47
2023-02-01T21:47:48.948Z,73.80
2023-02-01T21:50:19.184Z,73.47
2023-02-01T21:52:46.495Z,73.78
2023-02-01T21:55:14.015Z,73.45
2023-02-01T21:57:41.069Z,73.43
2023-02-01T22:00:08.663Z,73.69
2023-02-01T22:02:35.795Z,73.59
2023-02-01T22:05:05.262Z,73.18
2023-02-01T22:07:33.732Z,73.16
2023-02-01T22:10:01.058Z,73.26
2023-02-01T22:12:27.672Z,74.22
2023-02-01T22:14:54.389Z,73.76
2023-02-01T22:17:20.867Z,73.65
2023-02-01T22:19:47.366Z,74.55
2023-02-01T22:22:13.854Z,74.09
2023-02-01T22:24:40.263Z,73.78
2023-02-01T22:27:14.442Z,74.21
2023-02-01T22:29:42.455Z,73.89
2023-02-01T22:32:09.333Z,74.51
2023-02-01T22:34:35.775Z,74.28
2023-02-01T22:37:02.976Z,74.63
2023-02-01T22:39:29.575Z,74.25
2023-02-01T22:41:55.996Z,74.35
2023-02-01T22:44:23.653Z,74.17
2023-02-01T22:46:50.396Z,75.09
2023-02-01T22:49:17.403Z,74.83
2023-02-01T22:51:44.021Z,75.21
2023-02-01T22:54:17.579Z,74.88
2023-02-01T22:56:44.074Z,75.10
2023-02-01T22:59:13.668Z,74.79
2023-02-01T23:01:41.025Z,75.21
2023-02-01T23:04:11.369Z,76.37
2023-02-01T23:06:38.734Z,75.41
2023-02-01T23:09:11.331Z,76.09
2023-02-01T23:11:38.791Z,75.99
2023-02-01T23:14:06.093Z,75.89
2023-02-01T23:16:33.157Z,75.97
2023-02-01T23:18:59.884Z,75.68
2023-02-01T23:21:26.866Z,75.89
2023-02-01T23:23:56.585Z,76.05
2023-02-01T23:26:24.814Z,75.93
2023-02-01T23:28:55.068Z,76.27
2023-02-01T23:31:24.044Z,76.08
2023-02-01T23:33:54.908Z,76.37
2023-02-01T23:36:23.547Z,75.66
2023-02-01T23:38:50.872Z,76.56
2023-02-01T23:41:19.159Z,76.72
2023-02-01T23:43:58.588Z,76.90
2023-02-01T23:46:37.660Z,75.97
2023-02-01T23:49:06.234Z,76.56
2023-02-01T23:51:33.436Z,76.77
2023-02-01T23:53:59.909Z,76.91
2023-02-01T23:56:33.438Z,76.24
2023-02-01T23:59:05.048Z,76.58
